Time;durP1;ratioP1;P1;durP2;ratioP2;P2;SDS_P1;SDS_P2;PMS_P1;PMS_P2;Temp;Humidity;BMP_temperature;BMP_pressure;BME280_temperature;BME280_humidity;BME280_pressure;Samples;Min_cycle;Max_cycle;Signal;HPM_P1;HPM_P2
2020/12/29 05:01:07;;;;;;;26.67;13.63;;;;;;;0.71;78.94;96908.50;6007526;22;20107;-54
2020/12/29 05:03:45;;;;;;;28.23;14.32;;;;;;;0.98;78.48;96932.69;4928469;28;20110;-74
2020/12/29 05:06:12;;;;;;;22.92;13.25;;;;;;;1.00;78.87;96942.03;4934026;29;20062;-75
2020/12/29 05:08:42;;;;;;;24.15;12.48;;;;;;;0.77;79.54;96936.00;4962373;28;20049;-75
2020/12/29 05:11:08;;;;;;;26.73;13.97;;;;;;;0.94;77.84;96935.00;4969065;28;20095;-75
2020/12/29 05:13:33;;;;;;;28.27;13.30;;;;;;;1.21;76.88;96935.22;4937126;28;20271;-75
2020/12/29 05:15:59;;;;;;;24.45;12.70;;;;;;;1.31;75.67;96940.72;4921014;29;20500;-75
2020/12/29 05:18:25;;;;;;;23.30;13.15;;;;;;;0.79;79.26;96953.34;4934368;28;20510;-75
2020/12/29 05:20:51;;;;;;;22.27;12.27;;;;;;;0.73;79.64;96949.78;4934187;29;20105;-75
2020/12/29 05:23:17;;;;;;;25.00;13.68;;;;;;;0.43;80.56;96953.69;4970010;28;20484;-74
2020/12/29 05:25:45;;;;;;;21.85;12.55;;;;;;;0.48;80.73;96951.09;4953084;28;20046;-74
2020/12/29 05:28:11;;;;;;;23.75;13.80;;;;;;;0.45;80.20;96949.75;4948776;28;20124;-74
2020/12/29 05:30:37;;;;;;;27.02;13.88;;;;;;;0.50;80.43;96955.16;4949723;28;20063;-74
2020/12/29 05:33:14;;;;;;;25.05;13.98;;;;;;;0.21;80.67;96962.28;4949541;29;20047;-74
2020/12/29 05:35:40;;;;;;;26.60;12.45;;;;;;;0.24;80.34;96967.09;4949817;29;20118;-75
2020/12/29 05:38:08;;;;;;;24.10;12.30;;;;;;;0.15;80.66;96970.34;4949872;28;20135;-75
2020/12/29 05:40:34;;;;;;;26.92;13.40;;;;;;;0.36;79.51;96975.03;4949283;28;20069;-75
2020/12/29 05:43:01;;;;;;;24.65;12.65;;;;;;;0.18;81.54;96976.00;4949639;28;20235;-75
2020/12/29 05:45:28;;;;;;;21.88;12.43;;;;;;;0.21;80.75;96972.09;4949876;28;20059;-75
2020/12/29 05:47:55;;;;;;;22.38;11.77;;;;;;;-0.19;81.58;96975.44;4965653;28;20130;-74
2020/12/29 05:50:21;;;;;;;20.38;11.82;;;;;;;0.04;80.99;96977.28;4949183;28;20047;-75
2020/12/29 05:52:53;;;;;;;22.80;11.73;;;;;;;0.36;80.25;96978.50;4950124;28;20047;-75
2020/12/29 05:55:20;;;;;;;19.55;10.70;;;;;;;0.51;79.92;96980.69;4933709;28;20050;-75
2020/12/29 05:58:09;;;;;;;19.85;11.05;;;;;;;0.68;78.34;96980.78;4965827;28;20070;-75
2020/12/29 06:00:39;;;;;;;17.15;9.93;;;;;;;0.80;79.21;96980.75;4948582;28;20087;-75
2020/12/29 06:03:06;;;;;;;17.80;10.35;;;;;;;0.97;78.17;96981.59;4949391;28;20063;-74
2020/12/29 06:05:34;;;;;;;20.15;10.18;;;;;;;1.23;78.88;96978.38;4933472;28;20118;-75
2020/12/29 06:08:02;;;;;;;19.52;10.40;;;;;;;1.24;77.37;96982.66;4928006;28;20468;-75
2020/12/29 06:10:29;;;;;;;20.73;10.77;;;;;;;1.48;77.19;96982.53;4933003;28;20051;-76
2020/12/29 06:13:00;;;;;;;19.02;11.15;;;;;;;1.58;77.93;96986.16;4930730;29;20040;-75
2020/12/29 06:15:35;;;;;;;19.67;10.93;;;;;;;1.86;76.61;96990.59;4964628;28;20038;-75
2020/12/29 06:18:02;;;;;;;21.58;10.50;;;;;;;2.02;75.62;97004.97;4968221;28;20034;-74
2020/12/29 06:20:44;;;;;;;18.58;9.32;;;;;;;2.36;78.79;97006.53;4967838;28;20041;-75
2020/12/29 06:23:13;;;;;;;17.48;8.57;;;;;;;2.21;75.16;97006.31;4937437;28;20051;-74
2020/12/29 06:25:41;;;;;;;19.02;9.73;;;;;;;2.52;73.80;97011.06;4952614;28;20535;-75
2020/12/29 06:28:07;;;;;;;15.52;9.75;;;;;;;2.76;77.21;97008.97;4953562;28;20526;-74
2020/12/29 06:30:34;;;;;;;15.57;9.75;;;;;;;2.32;75.20;97016.06;4940773;29;20044;-75
2020/12/29 06:33:01;;;;;;;16.02;8.68;;;;;;;2.28;74.46;97014.97;4932432;29;20121;-73
2020/12/29 06:35:27;;;;;;;15.32;9.32;;;;;;;2.28;74.52;97016.81;4948802;29;20148;-74
2020/12/29 06:38:03;;;;;;;17.83;9.40;;;;;;;2.21;74.40;97024.97;4948146;28;20515;-75
2020/12/29 06:40:31;;;;;;;15.95;9.07;;;;;;;2.38;74.22;97028.44;4948351;28;20476;-75
2020/12/29 06:42:57;;;;;;;15.68;9.40;;;;;;;2.37;73.92;97026.81;4932655;28;20040;-75
2020/12/29 06:45:23;;;;;;;16.27;8.98;;;;;;;2.26;74.96;97038.38;4932445;28;20063;-75
2020/12/29 06:47:48;;;;;;;15.20;8.77;;;;;;;2.24;74.50;97026.34;4932883;28;20485;-75
2020/12/29 06:50:33;;;;;;;19.25;9.40;;;;;;;2.81;76.71;97034.88;4932916;29;20047;-75
2020/12/29 06:53:00;;;;;;;15.45;9.65;;;;;;;2.92;73.93;97036.63;4948129;28;20452;-75
2020/12/29 06:55:37;;;;;;;17.63;9.82;;;;;;;2.59;74.42;97036.72;4932578;28;20047;-75
2020/12/29 06:58:04;;;;;;;16.60;8.98;;;;;;;2.83;73.73;97041.59;4947812;28;20137;-75
2020/12/29 07:00:30;;;;;;;15.45;8.77;;;;;;;2.62;72.76;97047.72;4932036;28;20043;-74
2020/12/29 07:02:56;;;;;;;14.45;8.77;;;;;;;2.71;73.92;97040.09;4947765;28;20559;-75
2020/12/29 07:05:21;;;;;;;17.27;9.35;;;;;;;3.11;72.75;97039.81;4932313;28;20043;-75
2020/12/29 07:07:54;;;;;;;15.70;9.35;;;;;;;3.03;73.95;97034.88;4932504;29;20500;-75
2020/12/29 07:10:20;;;;;;;14.40;8.52;;;;;;;2.84;72.50;97053.88;4949606;28;20459;-74
2020/12/29 07:12:48;;;;;;;14.65;9.15;;;;;;;3.04;72.33;97050.66;4967586;28;20118;-75
2020/12/29 07:15:15;;;;;;;13.07;8.05;;;;;;;3.58;71.81;97067.53;4954626;28;20034;-74
2020/12/29 07:17:54;;;;;;;14.95;8.90;;;;;;;3.02;71.92;97059.97;4950698;28;20160;-74
2020/12/29 07:20:21;;;;;;;15.10;8.30;;;;;;;3.33;74.38;97067.28;4950050;28;20125;-75
2020/12/29 07:23:02;;;;;;;11.95;7.55;;;;;;;4.19;74.33;97069.97;4951226;28;20431;-75
2020/12/29 07:25:29;;;;;;;12.50;8.40;;;;;;;3.68;73.38;97071.41;4968283;28;20038;-75
2020/12/29 07:27:59;;;;;;;12.23;7.82;;;;;;;3.67;71.91;97065.25;4974889;28;20039;-74
2020/12/29 07:30:27;;;;;;;12.57;7.57;;;;;;;3.59;72.20;97079.84;4966684;28;20057;-75
2020/12/29 07:32:52;;;;;;;12.27;7.95;;;;;;;3.58;73.02;97090.78;4950904;28;20036;-74
2020/12/29 07:35:19;;;;;;;12.85;8.00;;;;;;;2.84;73.73;97085.09;4966849;28;20515;-75
2020/12/29 07:37:49;;;;;;;11.52;7.70;;;;;;;2.85;72.27;97100.84;4966115;28;20190;-75
2020/12/29 07:40:15;;;;;;;11.90;6.90;;;;;;;2.94;72.59;97093.22;4934536;28;20085;-75
2020/12/29 07:42:40;;;;;;;13.00;7.63;;;;;;;2.65;73.24;97110.44;4966804;28;20039;-74
2020/12/29 07:45:06;;;;;;;11.02;7.28;;;;;;;2.57;73.23;97110.81;4966590;28;20550;-75
2020/12/29 07:47:31;;;;;;;12.52;7.13;;;;;;;2.60;73.00;97103.16;4951723;28;20047;-74
2020/12/29 07:50:00;;;;;;;14.52;8.38;;;;;;;2.59;72.58;97114.06;4941867;28;20054;-75
2020/12/29 07:52:26;;;;;;;10.75;7.05;;;;;;;2.79;74.33;97111.69;4915664;29;20043;-75
2020/12/29 07:55:15;;;;;;;14.18;7.43;;;;;;;2.75;74.09;97122.06;4927083;28;20047;-75
2020/12/29 07:57:43;;;;;;;12.75;7.32;;;;;;;2.78;73.14;97126.06;4948553;28;20416;-75
2020/12/29 08:00:11;;;;;;;10.80;6.57;;;;;;;2.73;72.66;97132.16;4950230;28;20094;-75
2020/12/29 08:02:40;;;;;;;10.70;6.80;;;;;;;2.76;72.36;97131.69;4966303;28;20081;-75
2020/12/29 08:05:07;;;;;;;9.57;6.22;;;;;;;2.86;72.35;97142.50;4966586;28;20074;-75
2020/12/29 08:07:32;;;;;;;10.50;7.40;;;;;;;2.95;72.34;97150.88;4962053;28;20031;-76
2020/12/29 08:09:58;;;;;;;10.35;6.40;;;;;;;2.78;72.75;97142.06;4956775;28;20039;-75
2020/12/29 08:12:24;;;;;;;10.25;6.72;;;;;;;2.72;73.33;97149.22;4949513;28;20038;-75
2020/12/29 08:14:50;;;;;;;11.45;7.35;;;;;;;2.67;73.54;97145.63;4933923;28;20042;-74
2020/12/29 08:17:15;;;;;;;13.55;7.60;;;;;;;2.74;73.52;97156.97;4969870;28;20388;-75
2020/12/29 08:19:41;;;;;;;13.10;8.07;;;;;;;2.78;73.85;97158.06;4934273;28;20488;-75
2020/12/29 08:22:09;;;;;;;12.68;8.55;;;;;;;2.85;75.37;97156.88;4961917;28;20050;-74
2020/12/29 08:24:35;;;;;;;12.32;7.90;;;;;;;3.06;75.25;97162.50;4944694;28;20043;-74
2020/12/29 08:27:01;;;;;;;12.98;8.25;;;;;;;3.20;74.71;97174.44;4960182;28;20066;-75
2020/12/29 08:29:28;;;;;;;11.77;7.63;;;;;;;3.02;73.44;97180.84;4941026;28;20082;-75
2020/12/29 08:32:12;;;;;;;11.52;7.28;;;;;;;3.08;73.71;97189.75;4923759;28;20035;-75
2020/12/29 08:34:45;;;;;;;12.13;6.93;;;;;;;3.06;73.67;97202.53;4931482;28;20551;-75
2020/12/29 08:37:18;;;;;;;9.60;6.22;;;;;;;3.37;75.66;97195.75;4964636;28;20575;-75
2020/12/29 08:40:04;;;;;;;11.27;6.25;;;;;;;3.23;75.03;97200.66;4957820;28;20059;-75
2020/12/29 08:42:34;;;;;;;8.68;5.57;;;;;;;3.06;74.37;97211.34;4948328;28;20047;-74
2020/12/29 08:45:05;;;;;;;9.45;6.30;;;;;;;3.11;74.68;97218.63;4966254;28;20034;-75
2020/12/29 08:47:33;;;;;;;10.18;7.05;;;;;;;3.22;74.19;97213.19;4950588;28;20052;-74
2020/12/29 08:50:18;;;;;;;10.32;6.60;;;;;;;3.26;73.54;97211.63;4956106;28;20047;-77
2020/12/29 08:52:45;;;;;;;10.13;5.97;;;;;;;3.29;74.07;97210.34;4954697;28;20035;-78
2020/12/29 08:55:28;;;;;;;8.70;5.60;;;;;;;3.35;73.33;97220.03;4950937;28;20047;-77
2020/12/29 08:57:57;;;;;;;10.75;6.50;;;;;;;3.52;73.87;97217.31;4984992;28;20038;-78
2020/12/29 09:00:25;;;;;;;8.73;4.88;;;;;;;3.42;73.50;97223.34;4942528;28;20035;-79
2020/12/29 09:02:51;;;;;;;8.57;5.55;;;;;;;3.40;72.87;97227.31;4943754;28;20039;-78
2020/12/29 09:05:28;;;;;;;9.43;5.88;;;;;;;3.50;73.07;97220.25;4953790;28;20045;-76
2020/12/29 09:07:55;;;;;;;7.35;4.88;;;;;;;3.58;72.29;97219.00;4953819;28;20134;-77
2020/12/29 09:10:22;;;;;;;6.13;4.72;;;;;;;3.63;72.52;97224.41;4937546;28;20042;-78
2020/12/29 09:12:48;;;;;;;7.85;4.32;;;;;;;3.75;73.51;97229.63;4931227;28;20054;-79
2020/12/29 09:15:25;;;;;;;7.38;3.67;;;;;;;4.07;72.96;97235.91;4939146;28;20043;-78
2020/12/29 09:17:59;;;;;;;9.63;6.43;;;;;;;4.63;74.51;97250.66;4930343;29;20039;-76
2020/12/29 09:20:26;;;;;;;10.23;5.18;;;;;;;4.83;71.28;97251.91;4934025;28;20047;-76
2020/12/29 09:22:55;;;;;;;5.35;3.88;;;;;;;4.35;70.77;97261.63;4950205;28;20042;-76
2020/12/29 09:25:22;;;;;;;5.50;3.75;;;;;;;5.05;69.95;97253.44;4967956;28;20427;-76
2020/12/29 09:27:48;;;;;;;5.05;3.22;;;;;;;4.67;70.36;97254.44;4969839;28;20126;-76
2020/12/29 09:30:14;;;;;;;4.93;2.70;;;;;;;4.71;69.83;97262.78;4968771;28;20122;-77
2020/12/29 09:32:40;;;;;;;3.83;2.78;;;;;;;4.45;70.15;97266.25;4952955;28;20510;-76
2020/12/29 09:35:26;;;;;;;4.97;3.03;;;;;;;4.29;71.18;97263.41;4976193;28;20042;-76
2020/12/29 09:37:59;;;;;;;6.07;3.15;;;;;;;4.40;71.39;97276.88;4925943;28;20042;-76
2020/12/29 09:40:26;;;;;;;3.60;2.45;;;;;;;4.50;71.55;97274.34;4933416;29;20416;-76
2020/12/29 09:42:53;;;;;;;3.47;2.17;;;;;;;4.54;70.83;97281.59;4931241;28;20054;-76
2020/12/29 09:45:20;;;;;;;4.45;2.90;;;;;;;4.68;71.81;97282.00;4934679;29;20042;-77
2020/12/29 09:47:47;;;;;;;3.88;2.53;;;;;;;4.69;72.65;97283.63;4953190;28;20039;-76
2020/12/29 09:50:13;;;;;;;6.25;3.10;;;;;;;4.73;70.88;97287.41;4936809;28;20043;-77
2020/12/29 09:52:39;;;;;;;3.85;2.40;;;;;;;5.02;72.37;97290.63;4934069;28;20195;-76
2020/12/29 09:55:05;;;;;;;3.00;2.03;;;;;;;5.05;72.55;97293.59;4933169;28;20046;-77
2020/12/29 09:57:31;;;;;;;2.55;2.25;;;;;;;5.03;70.23;97295.72;4931951;29;20318;-76
2020/12/29 09:59:57;;;;;;;2.65;2.20;;;;;;;5.01;71.36;97305.88;4949226;28;20042;-77
2020/12/29 10:02:24;;;;;;;3.45;2.40;;;;;;;5.32;71.18;97308.78;4939022;28;20412;-77
2020/12/29 10:04:49;;;;;;;3.97;2.55;;;;;;;5.18;69.68;97307.63;4952651;28;20121;-76
2020/12/29 10:07:16;;;;;;;5.65;3.90;;;;;;;5.44;70.72;97304.06;4966250;28;20130;-76
2020/12/29 10:09:41;;;;;;;9.55;5.10;;;;;;;5.11;69.65;97307.81;4948804;28;20039;-76
2020/12/29 10:12:07;;;;;;;7.63;4.28;;;;;;;5.23;69.56;97304.97;4949638;28;20067;-77
2020/12/29 10:14:32;;;;;;;6.38;3.95;;;;;;;5.49;68.91;97316.69;4932163;29;20445;-77
2020/12/29 10:16:58;;;;;;;8.40;4.63;;;;;;;5.71;68.69;97307.47;4933631;29;20035;-76
2020/12/29 10:19:24;;;;;;;7.10;3.70;;;;;;;5.45;68.60;97309.16;4933179;29;20340;-78
2020/12/29 10:21:54;;;;;;;10.13;4.65;;;;;;;5.76;70.52;97306.69;4932899;29;20501;-77
2020/12/29 10:24:20;;;;;;;13.40;6.47;;;;;;;5.54;67.61;97309.47;4948748;29;20043;-77
2020/12/29 10:26:49;;;;;;;9.98;4.60;;;;;;;5.55;68.78;97312.97;4933422;29;20042;-76
2020/12/29 10:29:15;;;;;;;6.05;4.10;;;;;;;5.70;67.15;97299.69;4948647;29;20074;-77
2020/12/29 10:31:41;;;;;;;4.18;2.67;;;;;;;5.53;67.93;97310.56;4933168;29;20041;-78
2020/12/29 10:34:07;;;;;;;4.78;3.00;;;;;;;5.87;68.21;97313.72;4932929;29;20440;-77
2020/12/29 10:36:34;;;;;;;4.97;2.92;;;;;;;5.46;68.32;97318.00;4932887;29;20046;-78
2020/12/29 10:39:01;;;;;;;6.57;2.35;;;;;;;5.92;71.15;97324.50;4948741;28;20451;-77
2020/12/29 10:41:30;;;;;;;3.30;1.85;;;;;;;5.32;69.72;97332.91;4967890;28;20042;-77
2020/12/29 10:43:56;;;;;;;4.28;2.45;;;;;;;5.72;72.91;97333.22;4961210;28;20126;-77
2020/12/29 10:46:23;;;;;;;7.93;3.53;;;;;;;5.35;69.71;97337.75;4935319;28;20210;-76
2020/12/29 10:48:49;;;;;;;4.60;2.50;;;;;;;5.40;68.55;97340.47;4925971;29;20673;-77
2020/12/29 10:51:21;;;;;;;3.25;2.30;;;;;;;5.48;69.07;97350.72;4930258;29;20040;-78
2020/12/29 10:53:47;;;;;;;6.95;2.40;;;;;;;5.70;68.95;97345.25;4964851;28;20149;-77
2020/12/29 10:56:12;;;;;;;4.80;2.33;;;;;;;5.56;68.65;97350.25;4946993;29;20381;-78
2020/12/29 10:58:39;;;;;;;4.65;1.70;;;;;;;6.26;68.13;97334.84;4931032;28;20081;-77
2020/12/29 11:01:05;;;;;;;5.05;2.40;;;;;;;6.04;67.55;97343.88;4967361;28;20149;-77
2020/12/29 11:03:31;;;;;;;5.20;2.20;;;;;;;6.38;66.60;97332.75;4959238;28;20034;-77
2020/12/29 11:05:58;;;;;;;3.92;2.17;;;;;;;6.27;66.95;97336.47;4967703;28;20443;-77
2020/12/29 11:08:27;;;;;;;3.75;2.33;;;;;;;6.67;66.79;97328.59;4967766;28;20503;-77
2020/12/29 11:10:53;;;;;;;3.65;1.80;;;;;;;7.19;66.97;97335.66;4975476;28;20503;-77
2020/12/29 11:13:19;;;;;;;4.22;1.90;;;;;;;6.72;65.38;97336.63;4960072;28;20264;-77
2020/12/29 11:15:47;;;;;;;6.15;2.45;;;;;;;6.82;65.41;97342.03;4943626;28;20035;-77
2020/12/29 11:18:14;;;;;;;3.10;1.92;;;;;;;6.30;65.37;97346.69;4952015;28;20043;-77
2020/12/29 11:20:40;;;;;;;4.57;2.55;;;;;;;6.54;66.22;97355.91;4967845;28;20698;-77
2020/12/29 11:23:06;;;;;;;5.13;3.20;;;;;;;5.88;66.30;97362.81;4967729;28;20094;-78
2020/12/29 11:25:31;;;;;;;7.90;4.10;;;;;;;5.99;66.79;97364.50;4967347;28;20039;-77
2020/12/29 11:27:57;;;;;;;6.63;3.30;;;;;;;6.39;68.03;97361.22;4967902;28;20666;-76
2020/12/29 11:30:24;;;;;;;6.43;4.07;;;;;;;5.89;66.50;97367.91;4983512;28;20105;-77
2020/12/29 11:32:50;;;;;;;8.63;4.88;;;;;;;5.66;67.90;97374.44;4984052;28;20415;-77
2020/12/29 11:35:15;;;;;;;7.65;4.63;;;;;;;5.61;67.84;97377.09;4984499;28;20089;-77
2020/12/29 11:37:41;;;;;;;8.73;5.15;;;;;;;6.42;68.11;97382.97;4970327;28;20054;-77
2020/12/29 11:40:08;;;;;;;10.93;5.45;;;;;;;6.40;66.28;97393.16;4967476;28;20047;-77
2020/12/29 11:42:35;;;;;;;11.85;5.47;;;;;;;6.29;66.49;97391.50;4966713;28;20043;-77
2020/12/29 11:45:00;;;;;;;10.40;5.90;;;;;;;6.34;68.76;97406.81;4963887;28;20130;-76
2020/12/29 11:47:26;;;;;;;10.13;6.10;;;;;;;6.09;66.38;97404.81;4932575;29;20463;-75
2020/12/29 11:49:52;;;;;;;12.27;6.38;;;;;;;6.12;66.45;97413.13;4943036;28;20042;-76
2020/12/29 11:52:18;;;;;;;12.52;6.75;;;;;;;6.03;66.55;97411.19;4967693;28;20048;-79
2020/12/29 11:54:44;;;;;;;12.43;6.97;;;;;;;6.57;67.42;97419.81;4966949;28;20042;-75
2020/12/29 11:57:09;;;;;;;10.95;6.50;;;;;;;6.22;66.09;97419.63;4967316;28;20047;-75
2020/12/29 11:59:38;;;;;;;8.77;5.63;;;;;;;6.84;67.85;97423.13;4951252;28;20554;-76
2020/12/29 12:02:04;;;;;;;6.13;3.88;;;;;;;6.63;67.09;97440.25;4963244;28;20046;-76
2020/12/29 12:04:29;;;;;;;5.45;2.90;;;;;;;6.82;65.17;97437.91;4980004;28;20042;-76
2020/12/29 12:06:55;;;;;;;5.55;2.78;;;;;;;6.90;65.70;97442.78;4966721;28;20038;-76
2020/12/29 12:09:21;;;;;;;3.58;2.70;;;;;;;7.21;66.59;97447.16;4941643;28;20504;-76
2020/12/29 12:11:47;;;;;;;2.92;2.33;;;;;;;6.93;68.40;97442.22;4934614;29;20126;-75
2020/12/29 12:14:13;;;;;;;3.40;1.73;;;;;;;6.98;66.46;97439.56;4916103;28;20043;-76
2020/12/29 12:16:39;;;;;;;4.28;2.20;;;;;;;6.63;65.61;97450.97;4937291;28;21000;-76
2020/12/29 12:19:06;;;;;;;5.03;2.15;;;;;;;7.12;67.40;97448.75;4945816;28;20051;-75
2020/12/29 12:21:33;;;;;;;4.78;2.20;;;;;;;6.46;66.12;97459.19;4960279;28;20039;-76
2020/12/29 12:23:59;;;;;;;4.97;2.40;;;;;;;6.88;67.78;97453.78;4968339;28;20043;-76
2020/12/29 12:26:26;;;;;;;4.65;1.98;;;;;;;6.47;66.36;97457.31;4973821;28;20499;-76
2020/12/29 12:28:51;;;;;;;3.38;1.90;;;;;;;6.23;66.78;97448.09;4957726;28;20121;-76
2020/12/29 12:31:17;;;;;;;4.05;2.00;;;;;;;6.88;68.90;97459.16;4934474;28;20148;-76
2020/12/29 12:33:43;;;;;;;4.43;2.33;;;;;;;6.57;66.58;97449.34;4933841;28;20045;-76
2020/12/29 12:36:09;;;;;;;5.35;1.98;;;;;;;7.11;66.30;97457.06;4975020;28;20568;-76
2020/12/29 12:38:35;;;;;;;3.50;2.50;;;;;;;7.17;66.59;97464.06;4939117;28;20054;-76
2020/12/29 12:41:01;;;;;;;3.03;2.20;;;;;;;6.63;65.54;97464.41;4966765;28;20043;-76
2020/12/29 12:43:28;;;;;;;3.22;2.15;;;;;;;6.94;67.23;97468.03;4966743;28;20050;-76
2020/12/29 12:45:53;;;;;;;4.78;2.83;;;;;;;6.93;65.48;97468.28;4968145;28;20051;-76
2020/12/29 12:48:19;;;;;;;4.60;2.08;;;;;;;7.51;63.40;97472.47;4967001;28;20050;-76
2020/12/29 12:50:44;;;;;;;4.40;2.03;;;;;;;7.27;64.24;97461.41;4937956;28;20599;-76
2020/12/29 12:53:10;;;;;;;5.90;2.05;;;;;;;7.17;64.98;97469.44;4968375;28;20412;-75
2020/12/29 12:55:35;;;;;;;3.58;2.03;;;;;;;7.26;64.98;97473.25;4970028;28;20149;-76
2020/12/29 12:58:04;;;;;;;3.45;1.67;;;;;;;7.90;63.64;97470.09;4969523;28;20508;-76
2020/12/29 13:00:31;;;;;;;3.50;1.70;;;;;;;7.59;63.68;97477.34;4968755;28;20297;-75
2020/12/29 13:02:56;;;;;;;4.25;2.00;;;;;;;7.81;64.70;97477.91;4979633;28;20042;-76
2020/12/29 13:05:21;;;;;;;6.43;2.60;;;;;;;8.62;62.64;97480.56;4938269;28;20061;-76
2020/12/29 13:07:47;;;;;;;1.83;1.40;;;;;;;8.36;61.66;97492.44;4970015;28;20042;-76
2020/12/29 13:10:13;;;;;;;3.78;1.90;;;;;;;8.72;62.92;97490.50;4955456;28;20034;-75
2020/12/29 13:12:39;;;;;;;7.05;1.80;;;;;;;7.62;61.83;97491.06;4954044;28;20046;-76
2020/12/29 13:15:05;;;;;;;4.25;1.95;;;;;;;7.78;61.19;97505.34;4972335;28;20085;-77
2020/12/29 13:17:31;;;;;;;4.63;1.95;;;;;;;7.63;62.97;97511.50;4955699;28;20045;-76
2020/12/29 13:19:58;;;;;;;4.95;1.98;;;;;;;6.92;63.29;97509.66;4954847;28;20038;-75
2020/12/29 13:22:24;;;;;;;3.40;2.25;;;;;;;7.04;63.14;97526.38;4955894;28;20042;-75
2020/12/29 13:24:50;;;;;;;2.42;1.98;;;;;;;7.36;64.59;97532.41;4956114;28;20049;-76
2020/12/29 13:27:15;;;;;;;4.35;1.60;;;;;;;6.62;63.28;97537.94;4954822;28;20407;-76
2020/12/29 13:29:41;;;;;;;3.10;1.73;;;;;;;7.64;63.45;97540.00;4950467;28;20297;-75
2020/12/29 13:32:06;;;;;;;3.03;1.80;;;;;;;7.07;64.10;97550.00;4968705;28;20058;-75
2020/12/29 13:34:32;;;;;;;4.25;1.83;;;;;;;7.26;63.94;97549.31;4968627;28;20552;-75
2020/12/29 13:36:58;;;;;;;3.40;1.27;;;;;;;7.51;63.90;97569.25;4969109;28;20035;-76
2020/12/29 13:39:24;;;;;;;3.25;2.03;;;;;;;7.13;63.09;97567.78;4952906;28;20050;-76
2020/12/29 13:41:50;;;;;;;2.55;1.73;;;;;;;7.30;62.35;97576.44;4936561;28;20043;-75
2020/12/29 13:44:15;;;;;;;1.52;1.10;;;;;;;7.28;63.28;97582.09;4936993;28;20106;-76
2020/12/29 13:46:40;;;;;;;2.58;1.90;;;;;;;7.45;62.99;97584.59;4936911;28;20043;-76
2020/12/29 13:49:06;;;;;;;1.55;0.80;;;;;;;7.92;61.84;97587.16;4951424;28;20050;-76
2020/12/29 13:51:31;;;;;;;1.40;0.88;;;;;;;7.27;62.55;97593.91;4936873;28;20038;-76
2020/12/29 13:53:57;;;;;;;0.85;0.70;;;;;;;7.54;61.00;97601.81;4936453;28;20548;-75
2020/12/29 13:56:23;;;;;;;1.50;0.80;;;;;;;7.32;66.19;97611.94;4937201;28;20055;-76
2020/12/29 13:58:48;;;;;;;0.80;0.70;;;;;;;7.05;63.45;97625.50;4936837;28;20050;-75
2020/12/29 14:01:15;;;;;;;1.20;0.90;;;;;;;6.82;66.99;97626.69;4935599;28;20130;-75
2020/12/29 14:03:42;;;;;;;1.50;1.00;;;;;;;6.84;64.53;97643.34;4950634;28;20530;-76
2020/12/29 14:06:12;;;;;;;0.90;0.70;;;;;;;6.66;68.20;97637.59;4926990;28;20053;-76
2020/12/29 14:08:39;;;;;;;0.95;0.68;;;;;;;6.52;63.20;97646.06;4928549;28;20035;-76
2020/12/29 14:11:08;;;;;;;0.55;0.45;;;;;;;6.60;63.23;97652.84;4934040;28;20046;-75
2020/12/29 14:13:33;;;;;;;1.67;0.88;;;;;;;6.52;63.33;97669.41;4965253;28;20057;-75
2020/12/29 14:16:01;;;;;;;1.75;1.00;;;;;;;6.50;63.14;97664.28;4949682;28;20069;-76
2020/12/29 14:18:26;;;;;;;1.45;0.90;;;;;;;6.42;62.96;97670.13;4949819;28;20046;-75
2020/12/29 14:20:52;;;;;;;2.78;1.25;;;;;;;6.46;63.42;97675.81;4982500;28;20039;-75
2020/12/29 14:23:17;;;;;;;1.67;0.95;;;;;;;6.46;63.77;97673.91;4951189;28;20173;-76
2020/12/29 14:25:43;;;;;;;1.75;1.05;;;;;;;6.34;65.71;97685.91;4967583;28;20053;-76
2020/12/29 14:28:08;;;;;;;2.33;1.30;;;;;;;6.34;64.97;97685.91;4966148;28;20054;-75
2020/12/29 14:30:34;;;;;;;4.20;1.15;;;;;;;6.24;66.95;97691.13;4980948;28;20046;-75
2020/12/29 14:33:00;;;;;;;2.25;1.00;;;;;;;6.30;66.71;97685.59;4967473;28;20050;-77
2020/12/29 14:35:26;;;;;;;1.92;1.00;;;;;;;6.22;67.92;97712.06;4967615;28;20507;-77
2020/12/29 14:37:51;;;;;;;3.80;0.82;;;;;;;6.06;70.00;97708.41;4968185;28;20121;-77
2020/12/29 14:40:17;;;;;;;1.55;1.00;;;;;;;5.96;68.59;97716.31;4968420;28;20050;-76
2020/12/29 14:42:43;;;;;;;1.20;0.80;;;;;;;5.78;69.19;97730.81;4967650;28;20125;-77
2020/12/29 14:45:09;;;;;;;2.58;0.70;;;;;;;5.87;68.55;97729.34;4967504;28;20045;-77
2020/12/29 14:47:34;;;;;;;2.67;0.65;;;;;;;6.08;66.40;97744.66;4967753;28;20047;-77
2020/12/29 14:50:00;;;;;;;1.48;0.80;;;;;;;6.18;67.93;97746.63;4951310;28;20043;-76
2020/12/29 14:52:25;;;;;;;0.93;0.80;;;;;;;6.00;66.51;97749.66;4935464;28;20042;-77
2020/12/29 14:54:51;;;;;;;1.35;0.90;;;;;;;5.98;65.83;97763.28;4967539;28;20508;-77
2020/12/29 14:57:18;;;;;;;1.05;0.77;;;;;;;5.73;66.78;97765.63;4935692;28;20512;-76
2020/12/29 14:59:44;;;;;;;1.42;0.93;;;;;;;5.58;68.15;97762.72;4932006;29;20047;-77
2020/12/29 15:02:09;;;;;;;1.35;0.95;;;;;;;6.00;70.12;97760.38;4932873;29;20054;-76
2020/12/29 15:04:35;;;;;;;1.15;0.98;;;;;;;5.81;65.78;97765.19;4948282;29;20452;-76
2020/12/29 15:07:00;;;;;;;0.47;0.40;;;;;;;5.46;66.10;97766.31;4948541;28;20069;-77
2020/12/29 15:09:26;;;;;;;1.55;0.50;;;;;;;5.44;66.10;97784.50;4948014;29;20552;-76
2020/12/29 15:11:51;;;;;;;0.68;0.65;;;;;;;5.96;70.92;97786.06;4967377;28;20045;-76
2020/12/29 15:14:17;;;;;;;2.88;0.60;;;;;;;5.14;67.25;97799.28;4947520;28;20046;-77
2020/12/29 15:16:42;;;;;;;0.98;0.60;;;;;;;4.99;66.45;97795.31;4940233;28;20424;-76
2020/12/29 15:19:08;;;;;;;0.50;0.35;;;;;;;4.94;66.24;97805.13;4942585;28;20075;-77
2020/12/29 15:21:33;;;;;;;0.60;0.60;;;;;;;4.86;68.04;97805.50;4941589;28;20510;-77
2020/12/29 15:23:59;;;;;;;0.55;0.40;;;;;;;4.61;69.29;97816.59;4937100;29;20046;-76
2020/12/29 15:26:25;;;;;;;2.17;0.60;;;;;;;4.71;68.11;97814.91;4938894;28;20557;-77
2020/12/29 15:28:51;;;;;;;0.63;0.55;;;;;;;4.78;67.42;97825.47;4934315;29;20043;-77
2020/12/29 15:31:16;;;;;;;0.68;0.40;;;;;;;4.69;68.73;97829.56;4930291;29;20423;-77
2020/12/29 15:33:42;;;;;;;0.52;0.50;;;;;;;4.66;68.06;97833.53;4966061;28;20070;-77
2020/12/29 15:36:09;;;;;;;0.63;0.50;;;;;;;4.57;69.10;97839.50;4934093;28;20043;-78
2020/12/29 15:38:36;;;;;;;0.75;0.52;;;;;;;4.51;70.04;97840.44;4946640;28;20054;-76
2020/12/29 15:41:01;;;;;;;0.40;0.40;;;;;;;4.35;69.78;97855.41;4960200;28;20053;-76
2020/12/29 15:43:28;;;;;;;0.50;0.40;;;;;;;4.83;68.01;97851.53;4948192;28;20039;-77
2020/12/29 15:45:54;;;;;;;1.40;0.80;;;;;;;4.77;67.38;97873.88;4955547;28;20311;-77
2020/12/29 15:48:19;;;;;;;3.55;0.90;;;;;;;4.86;67.65;97875.09;4925206;28;20551;-77
2020/12/29 15:50:45;;;;;;;2.33;0.80;;;;;;;4.81;67.37;97881.19;4933313;28;20412;-77
2020/12/29 15:53:10;;;;;;;0.95;0.70;;;;;;;4.65;69.85;97889.97;4949049;28;20050;-77
2020/12/29 15:55:35;;;;;;;0.88;0.65;;;;;;;4.69;69.77;97899.16;4932703;28;20046;-76
2020/12/29 15:58:01;;;;;;;0.55;0.55;;;;;;;4.45;71.00;97901.09;4938314;28;20043;-77
2020/12/29 16:00:27;;;;;;;3.10;2.00;;;;;;;4.61;69.29;97904.91;4946394;28;20039;-77
2020/12/29 16:02:52;;;;;;;1.60;1.10;;;;;;;4.70;69.87;97915.00;4965996;28;20030;-76
2020/12/29 16:05:17;;;;;;;3.25;2.03;;;;;;;4.74;68.43;97909.94;4953997;28;20054;-77
2020/12/29 16:07:43;;;;;;;3.63;2.10;;;;;;;4.86;68.72;97909.91;4956088;28;20039;-77
2020/12/29 16:10:10;;;;;;;3.63;1.75;;;;;;;4.94;69.08;97925.63;4976666;28;20527;-77
2020/12/29 16:12:36;;;;;;;3.25;1.38;;;;;;;4.94;67.78;97926.44;4985253;28;20045;-77
2020/12/29 16:15:03;;;;;;;2.58;1.70;;;;;;;4.88;68.74;97935.41;4979054;28;20042;-77
2020/12/29 16:17:30;;;;;;;2.40;1.65;;;;;;;4.88;69.35;97932.72;4953376;28;20042;-77
2020/12/29 16:19:56;;;;;;;2.45;1.40;;;;;;;5.02;68.02;97941.28;4985915;28;20492;-76
2020/12/29 16:22:21;;;;;;;2.88;1.65;;;;;;;5.12;67.95;97941.47;4970228;28;20076;-76
2020/12/29 16:24:50;;;;;;;2.35;1.38;;;;;;;5.18;67.60;97955.78;4986332;28;20042;-77
2020/12/29 16:27:16;;;;;;;3.10;1.63;;;;;;;5.13;67.09;97961.03;4953341;28;20183;-77
2020/12/29 16:29:43;;;;;;;1.30;0.93;;;;;;;5.24;67.94;97984.28;4985733;28;20046;-77
2020/12/29 16:32:17;;;;;;;2.00;1.00;;;;;;;5.19;66.67;97981.53;4985790;28;20086;-77
2020/12/29 16:34:44;;;;;;;2.10;1.10;;;;;;;5.20;67.10;97985.81;4986598;28;20100;-76
2020/12/29 16:37:09;;;;;;;1.73;0.95;;;;;;;5.15;66.59;97993.75;4969688;28;21461;-77
2020/12/29 16:39:35;;;;;;;1.23;0.90;;;;;;;5.25;66.54;98002.81;4969455;28;20080;-77